createdAt,value
2023-01-30T09:40:09.705Z,99.5
2023-01-30T09:45:15.707Z,99.5
2023-01-30T09:50:21.830Z,98.5
2023-01-30T09:55:28.052Z,99.5
2023-01-30T10:00:34.098Z,99.5
2023-01-30T10:05:40.220Z,99.5
2023-01-30T10:10:46.328Z,98.5
2023-01-30T10:15:52.505Z,98
2023-01-30T10:20:58.523Z,98.5
2023-01-30T10:26:04.664Z,98
2023-01-30T10:31:10.945Z,97.5
2023-01-30T10:36:17.089Z,93
2023-01-30T10:41:22.986Z,94.5
2023-01-30T10:46:29.269Z,94.5
2023-01-30T10:51:35.376Z,93
2023-01-30T10:56:41.375Z,91
2023-01-30T11:01:46.488Z,89
2023-01-30T11:06:52.698Z,89
2023-01-30T11:11:58.827Z,87.5
2023-01-30T11:17:04.925Z,88.5
2023-01-30T11:22:10.160Z,94.5
2023-01-30T11:27:15.119Z,98.5
2023-01-30T11:32:21.373Z,99.5
2023-01-30T11:37:27.502Z,99.5
2023-01-30T11:42:33.643Z,98.5
2023-01-30T11:47:39.593Z,97
2023-01-30T11:52:45.700Z,97.5
2023-01-30T11:57:51.829Z,97.5
2023-01-30T12:02:57.958Z,97.5
2023-01-30T12:08:04.086Z,98
2023-01-30T12:13:10.316Z,97.5
2023-01-30T12:18:16.291Z,97
2023-01-30T12:23:22.507Z,93
2023-01-30T12:28:28.634Z,93
2023-01-30T12:33:33.662Z,95
2023-01-30T12:38:39.761Z,95.5
2023-01-30T12:43:45.948Z,96
2023-01-30T12:48:52.117Z,95.5
2023-01-30T12:53:58.205Z,97
2023-01-30T12:59:04.468Z,96.5
2023-01-30T13:04:10.354Z,94.5
2023-01-30T13:09:15.625Z,95
2023-01-30T13:14:20.829Z,92
2023-01-30T13:19:25.797Z,93.5
2023-01-30T13:24:30.896Z,93
2023-01-30T13:29:37.004Z,91
2023-01-30T13:34:43.384Z,91
2023-01-30T13:39:49.401Z,91.5
2023-01-30T13:44:55.333Z,94
2023-01-30T13:50:01.689Z,95.5
2023-01-30T13:55:07.680Z,98
2023-01-30T14:00:13.746Z,99
2023-01-30T14:05:19.840Z,99
2023-01-30T14:10:26.106Z,99.5
2023-01-30T14:15:32.236Z,99.5
2023-01-30T14:25:44.281Z,98.5
2023-01-30T14:30:49.579Z,98.5
2023-01-30T14:35:55.650Z,98.5
2023-01-30T14:41:01.806Z,98.5
2023-01-30T14:46:07.745Z,98
2023-01-30T14:51:13.971Z,98.5
2023-01-30T14:56:20.152Z,98.5
2023-01-30T15:01:26.108Z,98
2023-01-30T15:06:32.292Z,96.5
2023-01-30T15:16:43.605Z,99
2023-01-30T15:21:48.635Z,99.5
2023-01-30T15:26:53.918Z,99.5
2023-01-30T15:31:58.945Z,99.5
2023-01-30T15:37:04.157Z,99.5
2023-01-30T15:42:10.274Z,99.5
2023-01-30T15:47:16.420Z,99.5
2023-01-30T15:52:22.517Z,99.5
2023-01-30T15:57:28.591Z,99.5
2023-01-30T16:02:34.705Z,99.5
2023-01-30T16:07:40.892Z,99.5
2023-01-30T16:12:46.932Z,99.5
2023-01-30T16:17:53.106Z,99
2023-01-30T16:22:59.079Z,99.5
2023-01-30T16:28:05.181Z,99.5
2023-01-30T16:33:11.410Z,99.5
2023-01-30T16:38:17.452Z,99.5
2023-01-30T16:43:22.645Z,99.5
2023-01-30T16:48:28.659Z,99
2023-01-30T16:53:34.868Z,99.5
2023-01-30T16:58:40.979Z,99.5
2023-01-30T17:03:47.064Z,99.5
2023-01-30T17:08:53.171Z,99
2023-01-30T17:13:59.247Z,99
2023-01-30T17:19:04.511Z,98.5
2023-01-30T17:24:09.587Z,98.5
2023-01-30T17:29:14.814Z,98.5
2023-01-30T17:34:19.843Z,98
2023-01-30T17:39:25.902Z,98
2023-01-30T17:44:32.187Z,96
2023-01-30T17:49:38.277Z,96.5
2023-01-30T17:54:44.412Z,95.5
2023-01-30T17:59:50.584Z,96
2023-01-30T18:04:56.625Z,95
2023-01-30T18:10:02.585Z,94.5
2023-01-30T18:15:08.788Z,95
2023-01-30T18:20:14.919Z,94.5
2023-01-30T18:25:20.947Z,94
2023-01-30T18:30:27.085Z,94
2023-01-30T18:35:33.264Z,93
2023-01-30T18:40:38.507Z,94
